Time;durP1;ratioP1;P1;durP2;ratioP2;P2;SDS_P1;SDS_P2;PMS_P1;PMS_P2;Temp;Humidity;BMP_temperature;BMP_pressure;BME280_temperature;BME280_humidity;BME280_pressure;Samples;Min_cycle;Max_cycle;Signal;HPM_P1;HPM_P2
2023/11/09 00:00:55;;;;;;;21.38;12.07;;;230.60;2252.80;;;;;;5105310;28;20086;-78
2023/11/09 00:03:20;;;;;;;;;;;230.60;2252.80;;;;;;5096830;28;20115;-79
2023/11/09 00:05:49;;;;;;;15.38;9.20;;;230.60;2252.80;;;;;;5096449;28;20265;-78
2023/11/09 00:08:15;;;;;;;17.98;8.90;;;230.60;2252.80;;;;;;5081903;28;20063;-78
2023/11/09 00:10:41;;;;;;;18.52;9.88;;;230.50;2252.80;;;;;;5093501;28;20024;-78
2023/11/09 00:13:07;;;;;;;17.98;10.98;;;230.40;2252.80;;;;;;5095580;28;20570;-78
2023/11/09 00:15:32;;;;;;;54.45;22.63;;;205.70;2252.80;;;;;;5096373;28;20044;-79
2023/11/09 00:17:59;;;;;;;39.58;15.05;;;205.30;2252.80;;;;;;5096472;28;20122;-78
2023/11/09 00:20:26;;;;;;;33.08;14.23;;;205.20;2252.80;;;;;;5095769;28;20049;-78
2023/11/09 00:22:53;;;;;;;27.33;13.05;;;205.10;2252.80;;;;;;5093170;28;20035;-79
2023/11/09 00:25:19;;;;;;;29.90;11.68;;;205.20;2252.80;;;;;;5080593;28;20024;-79
2023/11/09 00:27:45;;;;;;;20.67;8.32;;;204.80;2252.80;;;;;;5093206;28;20024;-78
2023/11/09 00:30:11;;;;;;;;;;;180.00;2252.80;;;;;;5092951;28;20492;-78
2023/11/09 00:32:37;;;;;;;13.85;7.30;;;179.90;2252.80;;;;;;5093054;28;20360;-78
2023/11/09 00:35:04;;;;;;;;;;;180.00;2252.80;;;;;;5097027;28;20019;-78
2023/11/09 00:37:31;;;;;;;18.65;8.25;;;180.00;2252.80;;;;;;5096325;28;19926;-78
2023/11/09 00:39:57;;;;;;;16.10;7.85;;;179.70;2252.80;;;;;;5096786;28;20346;-79
2023/11/09 00:42:23;;;;;;;17.63;8.20;;;179.50;2252.80;;;;;;5093414;28;20043;-78
2023/11/09 00:44:49;;;;;;;19.58;8.00;;;179.40;2252.80;;;;;;5089323;28;20028;-78
2023/11/09 00:47:15;;;;;;;16.15;8.43;;;179.50;2252.80;;;;;;5081689;28;20135;-79
2023/11/09 00:49:41;;;;;;;12.98;7.13;;;179.50;2252.80;;;;;;5095932;28;20041;-79
2023/11/09 00:52:07;;;;;;;17.63;7.25;;;179.60;2252.80;;;;;;5096199;28;20038;-78
2023/11/09 00:54:33;;;;;;;16.75;7.93;;;179.70;2252.80;;;;;;5092582;28;20012;-78
2023/11/09 00:56:59;;;;;;;14.02;7.30;;;179.80;2252.80;;;;;;5096061;28;20027;-78
2023/11/09 00:59:25;;;;;;;17.23;7.90;;;179.80;2252.80;;;;;;5092717;28;20023;-79
2023/11/09 01:01:50;;;;;;;13.23;7.00;;;179.90;2252.80;;;;;;5082370;28;20044;-78
2023/11/09 01:04:17;;;;;;;;;;;179.90;2252.80;;;;;;5089966;28;20020;-78
2023/11/09 01:06:42;;;;;;;13.03;6.90;;;180.00;2252.80;;;;;;5102805;28;20010;-78
2023/11/09 01:09:08;;;;;;;;;;;180.00;2252.80;;;;;;5089785;28;20852;-79
2023/11/09 01:11:34;;;;;;;27.08;11.25;;;180.00;2252.80;;;;;;5082700;28;20327;-78
2023/11/09 01:13:59;;;;;;;21.95;10.27;;;179.90;2252.80;;;;;;5096142;28;20032;-77
2023/11/09 01:16:25;;;;;;;;;;;179.80;2252.80;;;;;;5114961;28;20036;-79
2023/11/09 01:18:51;;;;;;;11.68;7.63;;;179.70;2252.80;;;;;;5096767;28;19907;-78
2023/11/09 01:21:16;;;;;;;;;;;179.80;2252.80;;;;;;5128891;28;20011;-78
2023/11/09 01:23:42;;;;;;;16.00;6.70;;;179.80;2252.80;;;;;;5121067;28;19892;-78
2023/11/09 01:26:08;;;;;;;;;;;179.60;2252.80;;;;;;5097246;28;20051;-78
2023/11/09 01:28:35;;;;;;;15.23;7.20;;;179.80;2252.80;;;;;;5092445;28;19950;-78
2023/11/09 01:31:00;;;;;;;;;;;179.80;2252.80;;;;;;5096534;28;20134;-78
2023/11/09 01:33:28;;;;;;;13.33;4.97;;;179.70;2252.80;;;;;;5095591;28;20435;-79
2023/11/09 01:35:54;;;;;;;15.15;6.93;;;179.60;2252.80;;;;;;5092481;28;20026;-78
2023/11/09 01:38:19;;;;;;;18.20;8.85;;;179.70;2252.80;;;;;;5088793;28;20021;-79
2023/11/09 01:40:53;;;;;;;14.48;7.18;;;179.60;2252.80;;;;;;5090379;28;20017;-78
2023/11/09 01:43:19;;;;;;;13.15;8.48;;;179.60;2252.80;;;;;;5117272;28;20012;-78
2023/11/09 01:45:45;;;;;;;16.52;7.20;;;179.80;2252.80;;;;;;5117881;28;20056;-79
2023/11/09 01:48:14;;;;;;;17.45;7.57;;;179.70;2252.80;;;;;;5090527;28;20523;-78
2023/11/09 01:50:40;;;;;;;15.77;8.02;;;179.70;2252.80;;;;;;5088991;28;20036;-78
2023/11/09 01:53:07;;;;;;;;;;;179.80;2252.80;;;;;;5096661;28;20031;-79
2023/11/09 01:55:34;;;;;;;16.70;8.60;;;179.80;2252.80;;;;;;5096235;28;20384;-78
2023/11/09 01:58:02;;;;;;;15.80;8.02;;;179.80;2252.80;;;;;;5095910;28;20093;-78
2023/11/09 02:00:29;;;;;;;17.73;8.52;;;179.70;2252.80;;;;;;5095923;28;20024;-78
2023/11/09 02:02:56;;;;;;;16.67;8.05;;;179.60;2252.80;;;;;;5081965;28;20023;-78
2023/11/09 02:05:25;;;;;;;17.02;8.68;;;179.60;2252.80;;;;;;5099238;28;20110;-78
2023/11/09 02:07:53;;;;;;;18.27;8.68;;;179.60;2252.80;;;;;;5095371;28;20039;-79
2023/11/09 02:10:19;;;;;;;16.63;8.70;;;179.50;2252.80;;;;;;5095839;28;20020;-79
2023/11/09 02:12:45;;;;;;;18.30;10.43;;;179.50;2252.80;;;;;;5096017;28;20028;-78
2023/11/09 02:15:11;;;;;;;18.70;9.63;;;179.60;2252.80;;;;;;5095881;28;20028;-78
2023/11/09 02:17:37;;;;;;;19.60;9.60;;;179.60;2252.80;;;;;;5095650;28;20028;-79
2023/11/09 02:20:04;;;;;;;;;;;179.70;2252.80;;;;;;5095772;28;20031;-78
2023/11/09 02:22:31;;;;;;;18.80;9.68;;;179.80;2252.80;;;;;;5099491;28;19904;-78
2023/11/09 02:24:58;;;;;;;23.77;9.65;;;179.80;2252.80;;;;;;5098321;28;20030;-79
2023/11/09 02:27:24;;;;;;;17.70;9.65;;;204.80;2252.80;;;;;;5090537;28;20509;-78
2023/11/09 02:29:49;;;;;;;17.58;9.27;;;180.00;2252.80;;;;;;5088580;28;20028;-78
2023/11/09 02:32:17;;;;;;;16.23;9.10;;;180.10;2252.80;;;;;;5095191;28;20020;-79
2023/11/09 02:34:44;;;;;;;14.15;8.07;;;180.10;2252.80;;;;;;5096302;28;20024;-79
2023/11/09 02:37:09;;;;;;;16.58;9.40;;;180.00;2252.80;;;;;;5094941;28;20016;-79
2023/11/09 02:39:35;;;;;;;;;;;180.00;2252.80;;;;;;5078957;28;20032;-79
2023/11/09 02:42:02;;;;;;;16.52;8.95;;;180.00;2252.80;;;;;;5090438;28;20353;-79
2023/11/09 02:44:28;;;;;;;15.63;8.93;;;179.90;2252.80;;;;;;5078765;28;20044;-78
2023/11/09 02:46:54;;;;;;;17.52;10.13;;;179.90;2252.80;;;;;;5089705;28;20043;-79
2023/11/09 02:49:20;;;;;;;14.65;8.80;;;179.90;2252.80;;;;;;5079253;28;20029;-78
2023/11/09 02:51:46;;;;;;;13.68;8.52;;;179.90;2252.80;;;;;;5097822;28;20028;-78
2023/11/09 02:54:12;;;;;;;15.93;8.48;;;179.90;2252.80;;;;;;5097939;28;20586;-78
2023/11/09 02:56:38;;;;;;;;;;;179.80;2252.80;;;;;;5090032;28;20162;-78
2023/11/09 02:59:04;;;;;;;13.90;7.37;;;179.60;2252.80;;;;;;5095882;28;20006;-78
2023/11/09 03:01:31;;;;;;;17.83;8.65;;;179.30;2252.80;;;;;;5098012;28;20016;-79
2023/11/09 03:03:57;;;;;;;20.00;9.98;;;179.50;2252.80;;;;;;5095649;28;20024;-79
2023/11/09 03:06:23;;;;;;;18.75;11.18;;;179.60;2252.80;;;;;;5077498;28;20031;-78
2023/11/09 03:08:50;;;;;;;20.65;10.13;;;179.50;2252.80;;;;;;5092243;28;20024;-78
2023/11/09 03:11:20;;;;;;;17.85;10.27;;;179.50;2252.80;;;;;;5088648;28;20016;-79
2023/11/09 03:13:46;;;;;;;21.30;11.20;;;179.60;2252.80;;;;;;5075988;28;20115;-78
2023/11/09 03:16:13;;;;;;;26.20;13.10;;;179.60;2252.80;;;;;;5086178;28;20493;-79
2023/11/09 03:18:41;;;;;;;19.40;11.52;;;179.60;2252.80;;;;;;5096748;28;20106;-78
2023/11/09 03:21:10;;;;;;;24.42;12.35;;;179.70;2252.80;;;;;;5088450;28;20035;-79
2023/11/09 03:23:36;;;;;;;25.23;13.55;;;179.80;2252.80;;;;;;5090809;28;20508;-79
2023/11/09 03:26:02;;;;;;;;;;;179.90;2252.80;;;;;;5095477;28;20078;-79
2023/11/09 03:28:28;;;;;;;18.85;11.50;;;179.90;2252.80;;;;;;5079504;28;20364;-78
2023/11/09 03:30:55;;;;;;;20.77;11.93;;;180.00;2252.80;;;;;;5097565;28;20024;-79
2023/11/09 03:33:20;;;;;;;21.98;12.65;;;180.10;2252.80;;;;;;5112134;28;20044;-79
2023/11/09 03:35:46;;;;;;;24.23;13.25;;;180.10;2252.80;;;;;;5076949;28;20024;-79
2023/11/09 03:38:12;;;;;;;27.30;13.70;;;180.10;2252.80;;;;;;5092290;28;20024;-79
2023/11/09 03:40:37;;;;;;;;;;;180.00;2252.80;;;;;;5104709;28;20023;-79
2023/11/09 03:43:03;;;;;;;23.85;12.93;;;179.90;2252.80;;;;;;5101002;28;20284;-79
2023/11/09 03:45:28;;;;;;;;;;;179.70;2252.80;;;;;;5097508;28;20396;-78
2023/11/09 03:47:54;;;;;;;26.50;13.85;;;179.50;2252.80;;;;;;5101273;28;19989;-79
2023/11/09 03:50:20;;;;;;;;;;;179.50;2252.80;;;;;;5115248;28;20032;-78
2023/11/09 03:52:45;;;;;;;22.95;13.45;;;179.40;2252.80;;;;;;5080659;28;19911;-78
2023/11/09 03:55:11;;;;;;;;;;;179.40;2252.80;;;;;;5086599;28;20027;-79
2023/11/09 03:57:38;;;;;;;37.20;15.65;;;179.20;2252.80;;;;;;5096675;28;20348;-78
2023/11/09 04:00:11;;;;;;;28.13;16.45;;;179.40;2252.80;;;;;;5097233;28;20110;-79
2023/11/09 04:02:38;;;;;;;34.03;18.10;;;179.40;2252.80;;;;;;5097301;28;20484;-79
2023/11/09 04:05:04;;;;;;;37.13;17.33;;;179.40;2252.80;;;;;;5073879;28;20028;-79
2023/11/09 04:07:30;;;;;;;31.33;16.90;;;179.40;2252.80;;;;;;5080268;28;20032;-79
2023/11/09 04:09:56;;;;;;;;;;;179.30;2252.80;;;;;;5063043;28;20034;-79
2023/11/09 04:12:22;;;;;;;39.80;19.20;;;179.20;2252.80;;;;;;5080166;28;19911;-79
2023/11/09 04:14:47;;;;;;;;;;;179.30;2252.80;;;;;;5093689;28;20078;-79
2023/11/09 04:17:13;;;;;;;146.32;45.92;;;179.30;2252.80;;;;;;5096416;28;20388;-79
2023/11/09 04:19:39;;;;;;;44.03;21.75;;;179.30;2252.80;;;;;;5096846;28;20028;-79
2023/11/09 04:22:05;;;;;;;40.30;19.30;;;154.50;2252.80;;;;;;5092950;28;20016;-79
2023/11/09 04:24:31;;;;;;;32.83;18.08;;;154.30;2252.80;;;;;;5096693;28;20024;-79
2023/11/09 04:26:57;;;;;;;37.63;18.83;;;154.30;2252.80;;;;;;5093034;28;20055;-79
2023/11/09 04:29:24;;;;;;;34.17;19.67;;;154.30;2252.80;;;;;;5105298;28;20024;-79
2023/11/09 04:31:49;;;;;;;31.27;18.23;;;154.30;2252.80;;;;;;5096325;28;20020;-79
2023/11/09 04:34:15;;;;;;;;;;;154.30;2252.80;;;;;;5115199;28;20023;-79
2023/11/09 04:36:44;;;;;;;35.95;19.17;;;154.40;2022.40;;;;;;5105721;28;19904;-79
2023/11/09 04:39:10;;;;;;;26.90;16.45;;;154.50;2252.80;;;;;;5083876;28;20097;-79
2023/11/09 04:41:36;;;;;;;28.27;16.73;;;179.20;1971.20;;;;;;5088772;28;20024;-79
2023/11/09 04:44:03;;;;;;;;;;;179.20;2252.80;;;;;;5084623;28;20561;-78
2023/11/09 04:46:29;;;;;;;30.73;16.70;;;179.40;2252.80;;;;;;5092531;28;19923;-79
2023/11/09 04:48:57;;;;;;;;;;;179.30;2252.80;;;;;;5081550;28;20397;-79
2023/11/09 04:51:30;;;;;;;28.40;17.73;;;179.30;2252.80;;;;;;5092378;28;20403;-79
2023/11/09 04:54:03;;;;;;;27.45;17.40;;;179.20;2252.80;;;;;;5096145;28;20024;-79
2023/11/09 05:07:28;;;;;;;26.20;16.08;;;179.50;2252.80;;;;;;4973372;28;20125;-78
2023/11/09 05:09:54;;;;;;;;;;;179.50;2252.80;;;;;;4973072;28;20458;-78
2023/11/09 05:12:20;;;;;;;31.77;16.15;;;179.50;2252.80;;;;;;4972878;28;19953;-79
2023/11/09 05:14:46;;;;;;;;;;;179.40;2252.80;;;;;;4993643;28;20082;-77
2023/11/09 05:17:13;;;;;;;29.50;17.63;;;179.30;2252.80;;;;;;4997193;28;19922;-78
2023/11/09 05:19:41;;;;;;;25.80;16.58;;;179.40;2252.80;;;;;;4983098;28;20035;-78
2023/11/09 05:22:10;;;;;;;34.05;18.05;;;179.30;2252.80;;;;;;4974826;28;20050;-78
2023/11/09 05:24:40;;;;;;;26.35;16.55;;;179.20;2252.80;;;;;;4976899;28;20051;-78
2023/11/09 05:27:07;;;;;;;36.20;19.30;;;179.20;2252.80;;;;;;4991736;28;20052;-82
2023/11/09 05:29:33;;;;;;;33.97;21.45;;;179.20;2252.80;;;;;;4981520;28;20038;-77
2023/11/09 05:32:01;;;;;;;40.67;25.30;;;179.20;2252.80;;;;;;4995502;28;20069;-78
2023/11/09 05:34:26;;;;;;;47.15;26.77;;;179.30;2252.80;;;;;;4994934;28;20040;-79
2023/11/09 05:36:53;;;;;;;;;;;179.40;2252.80;;;;;;5033116;28;20032;-78
2023/11/09 05:39:19;;;;;;;40.40;23.98;;;179.50;2252.80;;;;;;5041408;28;19916;-78
2023/11/09 05:41:44;;;;;;;;;;;179.50;2252.80;;;;;;5051282;28;20028;-78
2023/11/09 05:44:10;;;;;;;48.88;22.77;;;179.60;2252.80;;;;;;5067896;28;19908;-77
2023/11/09 05:46:37;;;;;;;30.65;19.30;;;179.40;2252.80;;;;;;5084653;28;20070;-77
2023/11/09 05:49:04;;;;;;;34.75;22.10;;;179.30;2252.80;;;;;;5074520;28;20051;-78
2023/11/09 05:51:30;;;;;;;37.75;21.52;;;179.50;2252.80;;;;;;5101405;28;20032;-82
2023/11/09 05:53:57;;;;;;;;;;;179.50;2252.80;;;;;;5067471;28;20481;-79
2023/11/09 05:56:24;;;;;;;24.10;14.88;;;179.50;2252.80;;;;;;5063663;28;19912;-75
2023/11/09 05:58:50;;;;;;;31.98;19.45;;;179.40;2252.80;;;;;;5070204;28;20027;-78
2023/11/09 06:01:18;;;;;;;29.50;18.98;;;179.40;2252.80;;;;;;5078777;28;20024;-76
2023/11/09 06:03:43;;;;;;;29.60;18.58;;;179.40;2252.80;;;;;;5073148;28;20386;-79
2023/11/09 06:06:09;;;;;;;29.83;19.77;;;179.40;2252.80;;;;;;5099347;28;20035;-84
2023/11/09 06:08:35;;;;;;;;;;;179.30;2252.80;;;;;;5085356;28;20465;-80
2023/11/09 06:11:10;;;;;;;36.53;21.92;;;179.30;2252.80;;;;;;5084701;28;20010;-82
2023/11/09 06:13:37;;;;;;;34.20;21.83;;;179.40;2252.80;;;;;;5096268;28;20069;-78
2023/11/09 06:16:05;;;;;;;40.13;23.35;;;179.40;2252.80;;;;;;5082840;28;20044;-78
2023/11/09 06:18:32;;;;;;;44.58;26.30;;;179.50;2252.80;;;;;;5084498;28;20064;-81
2023/11/09 06:21:00;;;;;;;48.20;28.35;;;179.40;2252.80;;;;;;5078337;28;20031;-81
2023/11/09 06:23:30;;;;;;;53.95;28.65;;;179.40;2252.80;;;;;;5082133;28;20042;-80
2023/11/09 06:25:56;;;;;;;49.72;29.27;;;179.50;2252.80;;;;;;5097137;28;20040;-78
2023/11/09 06:28:25;;;;;;;46.83;29.13;;;179.60;2252.80;;;;;;5081322;28;20127;-78
2023/11/09 06:30:51;;;;;;;40.13;25.33;;;179.80;2252.80;;;;;;5095066;28;20089;-78
2023/11/09 06:33:20;;;;;;;36.90;23.05;;;179.90;2252.80;;;;;;5094187;28;20117;-76
2023/11/09 06:35:48;;;;;;;31.08;20.25;;;180.00;2252.80;;;;;;5092825;28;20096;-79
2023/11/09 06:38:19;;;;;;;33.03;21.08;;;180.10;2252.80;;;;;;5090084;28;20033;-78
2023/11/09 06:40:48;;;;;;;31.27;20.65;;;180.10;2252.80;;;;;;5096440;28;20724;-82
2023/11/09 06:43:13;;;;;;;30.77;19.52;;;180.10;2252.80;;;;;;5100847;28;20028;-82
2023/11/09 06:45:40;;;;;;;32.45;21.05;;;204.80;2252.80;;;;;;5090471;28;20039;-84
2023/11/09 06:48:06;;;;;;;31.00;19.58;;;204.90;2252.80;;;;;;5094740;28;20084;-79
2023/11/09 06:50:32;;;;;;;31.67;18.60;;;205.00;2252.80;;;;;;5095557;28;20123;-82
2023/11/09 06:52:58;;;;;;;38.72;19.50;;;205.10;2252.80;;;;;;5092810;28;20032;-85
2023/11/09 06:55:24;;;;;;;27.17;17.30;;;205.20;2252.80;;;;;;5088833;28;20028;-83
2023/11/09 06:57:53;;;;;;;28.67;18.02;;;205.20;2252.80;;;;;;5090027;28;20028;-83
2023/11/09 07:00:22;;;;;;;34.70;16.80;;;205.20;2252.80;;;;;;5102522;28;20020;-83
2023/11/09 07:02:49;;;;;;;25.70;17.23;;;205.30;2252.80;;;;;;5084569;28;20091;-83
2023/11/09 07:05:15;;;;;;;30.70;17.13;;;205.40;2252.80;;;;;;5097309;28;20060;-83
2023/11/09 07:07:41;;;;;;;28.50;17.83;;;205.50;2252.80;;;;;;5087785;28;20097;-82
2023/11/09 07:10:08;;;;;;;28.02;18.17;;;205.60;2252.80;;;;;;5099138;28;20481;-78
2023/11/09 07:12:37;;;;;;;26.73;17.30;;;205.60;2252.80;;;;;;5111633;28;20028;-79
2023/11/09 07:15:04;;;;;;;31.52;17.33;;;205.60;2252.80;;;;;;5092885;28;20025;-80
2023/11/09 07:17:30;;;;;;;27.90;16.02;;;230.40;2252.80;;;;;;5076317;28;20051;-80
2023/11/09 07:19:56;;;;;;;26.70;16.50;;;230.40;2252.80;;;;;;5095037;28;20024;-78
2023/11/09 07:22:22;;;;;;;25.70;15.80;;;230.50;2252.80;;;;;;5095873;28;20385;-79
2023/11/09 07:24:56;;;;;;;34.75;17.33;;;230.60;2252.80;;;;;;5066253;28;20029;-78
2023/11/09 07:27:23;;;;;;;26.65;16.60;;;230.60;2252.80;;;;;;5077217;28;20119;-78
2023/11/09 07:29:49;;;;;;;34.25;18.73;;;230.40;2252.80;;;;;;5071543;28;20071;-79
2023/11/09 07:32:14;;;;;;;29.90;17.40;;;230.90;2252.80;;;;;;5073181;28;20052;-78
2023/11/09 07:34:40;;;;;;;30.15;18.35;;;230.90;2252.80;;;;;;5067958;28;20028;-80
2023/11/09 07:37:06;;;;;;;;;;;231.10;2252.80;;;;;;5103479;28;20026;-80
2023/11/09 07:39:33;;;;;;;33.45;18.38;;;231.20;2252.80;;;;;;5082382;28;20354;-78
2023/11/09 07:42:03;;;;;;;33.75;17.38;;;231.20;2252.80;;;;;;5081541;28;20034;-79
2023/11/09 07:44:29;;;;;;;25.40;16.77;;;231.20;2252.80;;;;;;5076437;28;20126;-78
2023/11/09 07:46:56;;;;;;;31.50;17.95;;;231.10;2252.80;;;;;;5075509;28;20162;-79
2023/11/09 07:49:22;;;;;;;31.23;16.75;;;231.20;2252.80;;;;;;5073269;28;20044;-78
2023/11/09 07:51:48;;;;;;;28.15;17.15;;;231.20;2252.80;;;;;;5076948;28;20029;-76
2023/11/09 07:54:15;;;;;;;24.23;17.48;;;256.00;2252.80;;;;;;5080390;28;20028;-80
2023/11/09 07:56:40;;;;;;;31.35;16.50;;;256.00;2252.80;;;;;;5086215;28;20032;-79
2023/11/09 07:59:06;;;;;;;26.58;15.40;;;256.00;2252.80;;;;;;5083284;28;20030;-79
2023/11/09 08:01:32;;;;;;;28.73;16.80;;;256.00;2252.80;;;;;;5082095;28;20428;-81
2023/11/09 08:03:58;;;;;;;27.17;15.40;;;256.10;2252.80;;;;;;5091899;28;20081;-79
2023/11/09 08:06:24;;;;;;;28.25;16.80;;;256.20;2252.80;;;;;;5070463;28;20047;-79
2023/11/09 08:08:51;;;;;;;19.67;13.13;;;256.30;2252.80;;;;;;5075630;28;20115;-79
2023/11/09 08:11:18;;;;;;;21.25;12.93;;;256.50;2252.80;;;;;;5083951;28;20024;-80
2023/11/09 08:13:44;;;;;;;19.05;11.55;;;256.70;2252.80;;;;;;5090656;28;20020;-78
2023/11/09 08:16:10;;;;;;;19.83;12.88;;;256.40;2252.80;;;;;;5086149;28;20052;-86
2023/11/09 08:18:35;;;;;;;18.13;11.93;;;256.80;2252.80;;;;;;5067125;28;20039;-80
2023/11/09 08:21:03;;;;;;;18.35;11.82;;;281.60;2278.40;;;;;;5065024;28;20032;-82
2023/11/09 08:23:31;;;;;;;18.27;11.30;;;281.70;2278.40;;;;;;5070701;28;20044;-81
2023/11/09 08:25:57;;;;;;;14.70;10.98;;;281.80;2278.40;;;;;;5084429;28;20040;-79
2023/11/09 08:28:24;;;;;;;17.40;10.77;;;281.90;2278.40;;;;;;5084996;28;20488;-81
2023/11/09 08:30:51;;;;;;;20.73;9.70;;;282.50;2278.40;;;;;;5095739;28;20028;-82
2023/11/09 08:33:21;;;;;;;16.20;10.63;;;282.10;2278.40;;;;;;5084803;28;20048;-79
2023/11/09 08:35:49;;;;;;;17.92;9.40;;;307.20;2304.00;;;;;;5083923;28;20145;-79
2023/11/09 08:38:15;;;;;;;14.02;8.68;;;282.30;2278.40;;;;;;5082710;28;20074;-79
2023/11/09 08:40:43;;;;;;;13.30;9.50;;;282.30;2278.40;;;;;;5096716;28;20033;-79
2023/11/09 08:43:10;;;;;;;13.98;8.38;;;282.30;2278.40;;;;;;5126335;28;20020;-80
2023/11/09 08:45:36;;;;;;;13.07;8.40;;;282.40;2278.40;;;;;;5108299;28;20055;-82
2023/11/09 08:48:05;;;;;;;16.90;9.13;;;282.50;2278.40;;;;;;5072655;28;20097;-78
2023/11/09 08:50:30;;;;;;;14.65;9.55;;;307.20;2304.00;;;;;;5077650;28;20111;-79
2023/11/09 08:52:58;;;;;;;13.15;9.30;;;307.30;2304.00;;;;;;5081803;28;20115;-80
2023/11/09 08:55:25;;;;;;;13.50;8.80;;;307.30;2304.00;;;;;;5075269;28;20032;-80
2023/11/09 08:57:52;;;;;;;14.45;7.82;;;307.30;2304.00;;;;;;5089759;28;20056;-79
2023/11/09 09:00:18;;;;;;;11.43;8.05;;;307.40;2304.00;;;;;;5092513;28;20024;-81
2023/11/09 09:02:48;;;;;;;13.27;7.40;;;307.60;2304.00;;;;;;5077184;28;20027;-80
2023/11/09 09:05:16;;;;;;;11.18;7.28;;;307.70;2304.00;;;;;;5071636;28;20028;-83
2023/11/09 09:07:46;;;;;;;11.40;7.38;;;307.90;2304.00;;;;;;5089056;28;20036;-80
2023/11/09 09:10:15;;;;;;;16.85;7.75;;;307.90;2304.00;;;;;;5092069;28;20060;-82
2023/11/09 09:12:45;;;;;;;10.63;7.40;;;332.80;2329.60;;;;;;5080531;28;20031;-82
2023/11/09 09:15:18;;;;;;;9.07;5.93;;;333.00;2329.60;;;;;;5075509;28;20116;-83
2023/11/09 09:17:48;;;;;;;12.80;5.80;;;333.00;2329.60;;;;;;5073592;28;20114;-82
2023/11/09 09:20:19;;;;;;;8.35;5.22;;;333.20;2329.60;;;;;;5084879;28;20047;-80
2023/11/09 09:22:48;;;;;;;12.13;5.65;;;333.40;2329.60;;;;;;5081820;28;20035;-82
2023/11/09 09:25:16;;;;;;;9.02;5.40;;;333.40;2329.60;;;;;;5070650;28;20367;-82
2023/11/09 09:27:46;;;;;;;8.05;5.88;;;333.70;2329.60;;;;;;5080404;28;20030;-81
2023/11/09 09:30:14;;;;;;;12.23;6.30;;;358.50;2329.60;;;;;;5073095;28;20024;-82
2023/11/09 09:32:44;;;;;;;7.88;5.30;;;358.60;2329.60;;;;;;5078393;28;20024;-79
2023/11/09 09:35:11;;;;;;;7.60;4.25;;;358.70;2329.60;;;;;;5070185;28;20029;-78
2023/11/09 09:37:38;;;;;;;8.20;4.85;;;358.80;2329.60;;;;;;5078336;28;20043;-82
2023/11/09 09:40:22;;;;;;;10.95;5.00;;;358.90;2329.60;;;;;;5087366;28;20167;-80
2023/11/09 09:42:50;;;;;;;9.43;4.43;;;384.00;2329.60;;;;;;5067216;28;20025;-78
2023/11/09 09:45:26;;;;;;;9.90;3.88;;;384.00;2329.60;;;;;;5064526;28;20028;-83
2023/11/09 09:47:53;;;;;;;10.55;5.00;;;384.10;2329.60;;;;;;5091703;28;20058;-81
2023/11/09 09:50:23;;;;;;;7.38;3.65;;;384.20;2329.60;;;;;;5065398;28;20029;-81
2023/11/09 09:52:51;;;;;;;5.05;3.35;;;384.60;2329.60;;;;;;5074462;28;20040;-81
2023/11/09 09:55:21;;;;;;;7.22;3.45;;;384.70;2329.60;;;;;;5075508;28;20027;-82
2023/11/09 09:57:47;;;;;;;7.80;3.97;;;384.40;2329.60;;;;;;5070705;28;20032;-79
2023/11/09 10:00:24;;;;;;;9.95;4.50;;;384.50;2329.60;;;;;;5102472;28;20077;-81
2023/11/09 10:02:51;;;;;;;7.00;3.22;;;384.50;2329.60;;;;;;5072638;28;20025;-79
2023/11/09 10:05:18;;;;;;;5.57;3.20;;;409.60;2355.20;;;;;;5086842;28;20016;-80
2023/11/09 10:07:57;;;;;;;8.98;3.88;;;384.90;2329.60;;;;;;5072047;28;20032;-80
2023/11/09 10:10:22;;;;;;;11.85;3.75;;;409.70;2355.20;;;;;;5098118;28;20017;-84
2023/11/09 10:12:48;;;;;;;9.60;3.60;;;409.60;2355.20;;;;;;5084681;28;20126;-80
2023/11/09 10:15:15;;;;;;;7.18;3.22;;;410.00;2355.20;;;;;;5083824;28;20044;-81
2023/11/09 10:17:41;;;;;;;6.93;3.88;;;410.00;2355.20;;;;;;5079579;28;20031;-81
2023/11/09 10:20:17;;;;;;;5.82;3.92;;;409.90;2329.60;;;;;;5090036;28;20112;-83
2023/11/09 10:22:43;;;;;;;7.90;4.82;;;409.70;2252.80;;;;;;5080891;28;20021;-81
2023/11/09 10:25:12;;;;;;;14.13;4.57;;;410.00;2278.40;;;;;;5071599;28;20078;-84
2023/11/09 10:27:38;;;;;;;5.65;4.18;;;409.80;2252.80;;;;;;5079655;28;20044;-83
2023/11/09 10:30:07;;;;;;;7.60;4.13;;;410.20;2227.20;;;;;;5090598;28;20032;-83
2023/11/09 10:32:35;;;;;;;7.65;3.92;;;410.20;2176.00;;;;;;5082394;28;20090;-82
2023/11/09 10:35:05;;;;;;;13.73;4.28;;;410.10;2150.40;;;;;;5085768;28;20047;-80
2023/11/09 10:37:33;;;;;;;6.22;3.50;;;410.50;2150.40;;;;;;5101310;28;20487;-83
2023/11/09 10:40:04;;;;;;;9.68;4.82;;;410.40;2176.00;;;;;;5076245;28;20461;-81
2023/11/09 10:42:31;;;;;;;7.45;4.50;;;410.20;2201.60;;;;;;5065382;28;20028;-81
2023/11/09 10:44:58;;;;;;;7.70;4.32;;;409.80;2227.20;;;;;;5079039;28;20016;-81
2023/11/09 10:47:25;;;;;;;7.30;4.90;;;410.20;2201.60;;;;;;5088480;28;20119;-82
2023/11/09 10:49:55;;;;;;;6.07;3.22;;;435.30;2176.00;;;;;;5080452;28;20161;-85
2023/11/09 10:52:22;;;;;;;7.05;3.33;;;435.50;2099.20;;;;;;5084726;28;20035;-80
2023/11/09 10:54:55;;;;;;;10.02;4.05;;;410.50;2099.20;;;;;;5100383;28;20166;-82
2023/11/09 10:57:21;;;;;;;6.65;3.20;;;435.20;2073.60;;;;;;5072092;28;20059;-84
2023/11/09 10:59:48;;;;;;;7.03;2.70;;;410.40;2048.00;;;;;;5077564;28;20028;-83
2023/11/09 11:02:19;;;;;;;6.00;3.08;;;410.50;2022.40;;;;;;5080120;28;20024;-83
2023/11/09 11:04:50;;;;;;;9.85;3.58;;;410.50;2048.00;;;;;;5075725;28;20102;-83
2023/11/09 11:07:25;;;;;;;9.38;3.58;;;410.50;2073.60;;;;;;5072760;28;20043;-84
2023/11/09 11:09:52;;;;;;;6.00;3.55;;;435.30;2048.00;;;;;;5081388;28;20029;-79
2023/11/09 11:12:21;;;;;;;18.40;3.15;;;435.30;2048.00;;;;;;5086164;28;20449;-81
2023/11/09 11:14:49;;;;;;;6.32;3.33;;;435.20;2073.60;;;;;;5077581;28;20021;-80
2023/11/09 11:17:20;;;;;;;7.85;3.38;;;435.30;2099.20;;;;;;5067893;28;20060;-82
2023/11/09 11:19:59;;;;;;;6.28;3.83;;;410.50;2124.80;;;;;;5091166;28;20036;-81
2023/11/09 11:22:32;;;;;;;7.40;4.28;;;410.40;2124.80;;;;;;5095318;28;20019;-79
2023/11/09 11:25:24;;;;;;;6.30;3.58;;;410.50;2124.80;;;;;;5086846;28;20023;-79
2023/11/09 11:27:58;;;;;;;7.85;2.92;;;435.30;2124.80;;;;;;5092867;28;20038;-82
2023/11/09 11:30:35;;;;;;;4.95;2.92;;;435.20;2048.00;;;;;;5087634;28;20028;-83
2023/11/09 11:33:05;;;;;;;5.18;2.75;;;410.40;2073.60;;;;;;5093085;28;20020;-81
2023/11/09 11:35:42;;;;;;;6.28;3.35;;;410.30;2048.00;;;;;;5108307;28;20027;-83
2023/11/09 11:38:23;;;;;;;4.80;2.40;;;435.20;2048.00;;;;;;5101347;28;20021;-82
2023/11/09 11:41:00;;;;;;;15.98;2.60;;;435.20;2048.00;;;;;;5097104;28;20024;-82
2023/11/09 11:43:36;;;;;;;3.85;2.20;;;410.30;1996.80;;;;;;5092846;28;20117;-80
2023/11/09 11:46:24;;;;;;;7.32;2.00;;;410.50;2022.40;;;;;;5085136;28;20029;-83
2023/11/09 11:48:53;;;;;;;4.78;2.03;;;410.40;1945.60;;;;;;5089126;28;20599;-80
2023/11/09 11:51:20;;;;;;;4.50;2.00;;;410.50;1920.00;;;;;;5095288;28;20024;-82
2023/11/09 11:54:13;;;;;;;4.85;2.08;;;410.30;1920.00;;;;;;5104518;28;20019;-83
2023/11/09 11:56:39;;;;;;;5.97;2.35;;;410.20;1971.20;;;;;;5082700;28;20036;-82
2023/11/09 11:59:07;;;;;;;4.43;2.90;;;410.10;1971.20;;;;;;5103542;28;20031;-82
2023/11/09 12:01:33;;;;;;;4.95;3.08;;;410.00;1971.20;;;;;;5102514;28;20051;-79
2023/11/09 12:04:02;;;;;;;5.70;2.50;;;410.10;1971.20;;;;;;5120121;28;20012;-80
2023/11/09 12:06:29;;;;;;;5.45;3.33;;;410.00;1971.20;;;;;;5088741;28;20119;-83
2023/11/09 12:08:58;;;;;;;4.28;2.28;;;410.00;1996.80;;;;;;5080575;28;20038;-81
2023/11/09 12:11:26;;;;;;;5.50;2.42;;;410.10;1996.80;;;;;;5075355;28;20027;-84
2023/11/09 12:13:58;;;;;;;6.20;2.47;;;410.10;2022.40;;;;;;5079623;28;20044;-80
2023/11/09 12:16:24;;;;;;;6.43;3.33;;;410.20;2048.00;;;;;;5080301;28;20135;-78
2023/11/09 12:18:56;;;;;;;7.68;3.28;;;410.20;1996.80;;;;;;5066441;28;20055;-78
2023/11/09 12:21:29;;;;;;;4.70;2.53;;;410.20;1996.80;;;;;;5069443;28;20027;-78
2023/11/09 12:23:57;;;;;;;5.10;2.33;;;410.00;1996.80;;;;;;5075874;28;20069;-78
2023/11/09 12:26:29;;;;;;;5.50;2.58;;;410.00;1971.20;;;;;;5089350;28;20123;-79
2023/11/09 12:28:55;;;;;;;7.00;2.95;;;409.90;2022.40;;;;;;5069641;28;20027;-79